sensor_id;sensor_type;location;lat;lon;timestamp;P1;durP1;ratioP1;P2;durP2;ratioP2
29854;SDS011;16733;48.738;9.106;2023-12-20T00:01:35;0.50;;;0.50;;
29854;SDS011;16733;48.738;9.106;2023-12-20T00:04:02;0.60;;;0.60;;
29854;SDS011;16733;48.738;9.106;2023-12-20T00:06:28;1.35;;;0.47;;
29854;SDS011;16733;48.738;9.106;2023-12-20T00:08:54;1.50;;;0.60;;
29854;SDS011;16733;48.738;9.106;2023-12-20T00:11:20;0.65;;;0.60;;
29854;SDS011;16733;48.738;9.106;2023-12-20T00:13:46;0.55;;;0.55;;
29854;SDS011;16733;48.738;9.106;2023-12-20T00:16:12;0.60;;;0.60;;
29854;SDS011;16733;48.738;9.106;2023-12-20T00:18:38;0.95;;;0.50;;
29854;SDS011;16733;48.738;9.106;2023-12-20T00:21:04;0.57;;;0.50;;
29854;SDS011;16733;48.738;9.106;2023-12-20T00:23:30;0.30;;;0.30;;
29854;SDS011;16733;48.738;9.106;2023-12-20T00:25:56;1.77;;;0.55;;
29854;SDS011;16733;48.738;9.106;2023-12-20T00:28:22;0.40;;;0.40;;
29854;SDS011;16733;48.738;9.106;2023-12-20T00:30:48;0.85;;;0.52;;
29854;SDS011;16733;48.738;9.106;2023-12-20T00:33:14;0.50;;;0.50;;
29854;SDS011;16733;48.738;9.106;2023-12-20T00:35:40;0.70;;;0.65;;
29854;SDS011;16733;48.738;9.106;2023-12-20T00:38:06;0.75;;;0.63;;
29854;SDS011;16733;48.738;9.106;2023-12-20T00:40:33;1.20;;;0.68;;
29854;SDS011;16733;48.738;9.106;2023-12-20T00:42:59;0.60;;;0.60;;
29854;SDS011;16733;48.738;9.106;2023-12-20T00:45:25;0.43;;;0.43;;
29854;SDS011;16733;48.738;9.106;2023-12-20T00:47:51;0.55;;;0.52;;
29854;SDS011;16733;48.738;9.106;2023-12-20T00:50:17;5.40;;;0.65;;
29854;SDS011;16733;48.738;9.106;2023-12-20T00:52:43;0.30;;;0.30;;
29854;SDS011;16733;48.738;9.106;2023-12-20T00:55:09;0.43;;;0.40;;
29854;SDS011;16733;48.738;9.106;2023-12-20T00:57:35;0.63;;;0.63;;
29854;SDS011;16733;48.738;9.106;2023-12-20T01:00:01;0.40;;;0.40;;
29854;SDS011;16733;48.738;9.106;2023-12-20T01:02:27;0.93;;;0.70;;
29854;SDS011;16733;48.738;9.106;2023-12-20T01:04:54;1.27;;;0.60;;
29854;SDS011;16733;48.738;9.106;2023-12-20T01:07:20;0.50;;;0.50;;
29854;SDS011;16733;48.738;9.106;2023-12-20T01:09:46;0.57;;;0.50;;
29854;SDS011;16733;48.738;9.106;2023-12-20T01:12:12;1.45;;;0.80;;
29854;SDS011;16733;48.738;9.106;2023-12-20T01:14:38;1.02;;;0.60;;
29854;SDS011;16733;48.738;9.106;2023-12-20T01:17:04;5.05;;;0.40;;
29854;SDS011;16733;48.738;9.106;2023-12-20T01:19:30;0.45;;;0.40;;
29854;SDS011;16733;48.738;9.106;2023-12-20T01:21:56;0.40;;;0.40;;
29854;SDS011;16733;48.738;9.106;2023-12-20T01:24:22;0.20;;;0.20;;
29854;SDS011;16733;48.738;9.106;2023-12-20T01:26:48;0.50;;;0.20;;
29854;SDS011;16733;48.738;9.106;2023-12-20T01:29:14;0.20;;;0.20;;
29854;SDS011;16733;48.738;9.106;2023-12-20T01:31:41;0.20;;;0.20;;
29854;SDS011;16733;48.738;9.106;2023-12-20T01:34:07;0.20;;;0.20;;
29854;SDS011;16733;48.738;9.106;2023-12-20T01:36:33;0.20;;;0.20;;
29854;SDS011;16733;48.738;9.106;2023-12-20T01:38:59;0.20;;;0.20;;
29854;SDS011;16733;48.738;9.106;2023-12-20T01:41:25;0.20;;;0.20;;
29854;SDS011;16733;48.738;9.106;2023-12-20T01:43:51;0.20;;;0.20;;
29854;SDS011;16733;48.738;9.106;2023-12-20T01:46:18;0.20;;;0.20;;
29854;SDS011;16733;48.738;9.106;2023-12-20T01:48:44;0.20;;;0.20;;
29854;SDS011;16733;48.738;9.106;2023-12-20T01:51:10;0.20;;;0.20;;
29854;SDS011;16733;48.738;9.106;2023-12-20T01:53:36;0.20;;;0.20;;
29854;SDS011;16733;48.738;9.106;2023-12-20T01:56:03;0.20;;;0.20;;
29854;SDS011;16733;48.738;9.106;2023-12-20T01:58:29;0.20;;;0.20;;
29854;SDS011;16733;48.738;9.106;2023-12-20T02:00:55;0.20;;;0.20;;
29854;SDS011;16733;48.738;9.106;2023-12-20T02:03:21;0.20;;;0.20;;
29854;SDS011;16733;48.738;9.106;2023-12-20T02:05:47;0.20;;;0.20;;
29854;SDS011;16733;48.738;9.106;2023-12-20T02:08:13;0.20;;;0.20;;
29854;SDS011;16733;48.738;9.106;2023-12-20T02:10:39;0.20;;;0.20;;
29854;SDS011;16733;48.738;9.106;2023-12-20T02:13:06;0.10;;;0.10;;
29854;SDS011;16733;48.738;9.106;2023-12-20T02:15:32;0.20;;;0.20;;
29854;SDS011;16733;48.738;9.106;2023-12-20T02:17:58;0.20;;;0.20;;
29854;SDS011;16733;48.738;9.106;2023-12-20T02:20:24;0.20;;;0.20;;
29854;SDS011;16733;48.738;9.106;2023-12-20T02:22:50;0.20;;;0.20;;
29854;SDS011;16733;48.738;9.106;2023-12-20T02:25:16;0.20;;;0.20;;
29854;SDS011;16733;48.738;9.106;2023-12-20T02:27:42;0.20;;;0.20;;
29854;SDS011;16733;48.738;9.106;2023-12-20T02:30:09;0.20;;;0.20;;
29854;SDS011;16733;48.738;9.106;2023-12-20T02:32:36;0.20;;;0.20;;
29854;SDS011;16733;48.738;9.106;2023-12-20T02:35:02;0.20;;;0.20;;
29854;SDS011;16733;48.738;9.106;2023-12-20T02:37:28;0.20;;;0.20;;
29854;SDS011;16733;48.738;9.106;2023-12-20T02:39:54;0.20;;;0.20;;
29854;SDS011;16733;48.738;9.106;2023-12-20T02:42:20;0.20;;;0.20;;
29854;SDS011;16733;48.738;9.106;2023-12-20T02:44:46;0.10;;;0.10;;
29854;SDS011;16733;48.738;9.106;2023-12-20T02:47:12;0.15;;;0.15;;
29854;SDS011;16733;48.738;9.106;2023-12-20T02:49:38;0.20;;;0.20;;
29854;SDS011;16733;48.738;9.106;2023-12-20T02:52:04;0.20;;;0.20;;
29854;SDS011;16733;48.738;9.106;2023-12-20T02:54:30;0.20;;;0.20;;
29854;SDS011;16733;48.738;9.106;2023-12-20T02:56:56;0.20;;;0.20;;
29854;SDS011;16733;48.738;9.106;2023-12-20T02:59:22;0.20;;;0.20;;
29854;SDS011;16733;48.738;9.106;2023-12-20T03:01:48;0.20;;;0.20;;
29854;SDS011;16733;48.738;9.106;2023-12-20T03:04:14;0.20;;;0.20;;
29854;SDS011;16733;48.738;9.106;2023-12-20T03:06:40;0.10;;;0.10;;
29854;SDS011;16733;48.738;9.106;2023-12-20T03:09:06;0.20;;;0.20;;
29854;SDS011;16733;48.738;9.106;2023-12-20T03:11:33;0.15;;;0.15;;
29854;SDS011;16733;48.738;9.106;2023-12-20T03:13:59;0.20;;;0.20;;
29854;SDS011;16733;48.738;9.106;2023-12-20T03:16:25;0.20;;;0.20;;
29854;SDS011;16733;48.738;9.106;2023-12-20T03:18:51;0.10;;;0.10;;
29854;SDS011;16733;48.738;9.106;2023-12-20T03:21:17;0.20;;;0.20;;
29854;SDS011;16733;48.738;9.106;2023-12-20T03:23:43;0.20;;;0.20;;
29854;SDS011;16733;48.738;9.106;2023-12-20T03:26:09;0.20;;;0.20;;
29854;SDS011;16733;48.738;9.106;2023-12-20T03:28:38;0.20;;;0.20;;
29854;SDS011;16733;48.738;9.106;2023-12-20T03:31:04;0.20;;;0.20;;
29854;SDS011;16733;48.738;9.106;2023-12-20T03:33:30;0.20;;;0.20;;
29854;SDS011;16733;48.738;9.106;2023-12-20T03:35:56;0.20;;;0.20;;
29854;SDS011;16733;48.738;9.106;2023-12-20T03:38:22;0.20;;;0.20;;
29854;SDS011;16733;48.738;9.106;2023-12-20T03:40:49;0.20;;;0.20;;
29854;SDS011;16733;48.738;9.106;2023-12-20T03:43:15;0.20;;;0.20;;
29854;SDS011;16733;48.738;9.106;2023-12-20T03:45:42;0.20;;;0.20;;
29854;SDS011;16733;48.738;9.106;2023-12-20T03:48:08;0.20;;;0.20;;
29854;SDS011;16733;48.738;9.106;2023-12-20T03:50:34;0.10;;;0.10;;
29854;SDS011;16733;48.738;9.106;2023-12-20T03:53:00;0.20;;;0.20;;
29854;SDS011;16733;48.738;9.106;2023-12-20T03:55:26;0.20;;;0.20;;
29854;SDS011;16733;48.738;9.106;2023-12-20T03:57:52;0.20;;;0.20;;
29854;SDS011;16733;48.738;9.106;2023-12-20T04:00:18;0.20;;;0.20;;
29854;SDS011;16733;48.738;9.106;2023-12-20T04:02:44;0.20;;;0.20;;
29854;SDS011;16733;48.738;9.106;2023-12-20T04:05:10;0.20;;;0.20;;
29854;SDS011;16733;48.738;9.106;2023-12-20T04:07:36;0.20;;;0.20;;
29854;SDS011;16733;48.738;9.106;2023-12-20T04:10:02;0.20;;;0.20;;
29854;SDS011;16733;48.738;9.106;2023-12-20T04:12:28;0.20;;;0.20;;
29854;SDS011;16733;48.738;9.106;2023-12-20T04:14:54;0.20;;;0.20;;
29854;SDS011;16733;48.738;9.106;2023-12-20T04:17:20;0.20;;;0.20;;
29854;SDS011;16733;48.738;9.106;2023-12-20T04:19:48;0.20;;;0.20;;
29854;SDS011;16733;48.738;9.106;2023-12-20T04:22:14;0.17;;;0.17;;
29854;SDS011;16733;48.738;9.106;2023-12-20T04:24:40;0.10;;;0.10;;
29854;SDS011;16733;48.738;9.106;2023-12-20T04:27:07;0.20;;;0.20;;
29854;SDS011;16733;48.738;9.106;2023-12-20T04:29:33;0.20;;;0.20;;
29854;SDS011;16733;48.738;9.106;2023-12-20T04:31:59;0.20;;;0.20;;
29854;SDS011;16733;48.738;9.106;2023-12-20T04:34:25;0.20;;;0.20;;
29854;SDS011;16733;48.738;9.106;2023-12-20T04:36:51;0.20;;;0.20;;
29854;SDS011;16733;48.738;9.106;2023-12-20T04:39:17;0.20;;;0.20;;
29854;SDS011;16733;48.738;9.106;2023-12-20T04:41:43;0.20;;;0.20;;
29854;SDS011;16733;48.738;9.106;2023-12-20T04:44:09;0.20;;;0.20;;
29854;SDS011;16733;48.738;9.106;2023-12-20T04:46:35;0.20;;;0.20;;
29854;SDS011;16733;48.738;9.106;2023-12-20T04:49:01;0.20;;;0.20;;
29854;SDS011;16733;48.738;9.106;2023-12-20T04:51:27;0.10;;;0.10;;
29854;SDS011;16733;48.738;9.106;2023-12-20T04:53:53;0.20;;;0.20;;
29854;SDS011;16733;48.738;9.106;2023-12-20T04:56:19;0.15;;;0.15;;
29854;SDS011;16733;48.738;9.106;2023-12-20T04:58:45;0.20;;;0.20;;
29854;SDS011;16733;48.738;9.106;2023-12-20T05:01:12;0.20;;;0.20;;
29854;SDS011;16733;48.738;9.106;2023-12-20T05:03:38;0.20;;;0.20;;
29854;SDS011;16733;48.738;9.106;2023-12-20T05:06:04;0.20;;;0.20;;
29854;SDS011;16733;48.738;9.106;2023-12-20T05:08:30;0.20;;;0.20;;
29854;SDS011;16733;48.738;9.106;2023-12-20T05:10:56;0.20;;;0.20;;
29854;SDS011;16733;48.738;9.106;2023-12-20T05:13:22;0.17;;;0.17;;
29854;SDS011;16733;48.738;9.106;2023-12-20T05:15:48;0.20;;;0.20;;
29854;SDS011;16733;48.738;9.106;2023-12-20T05:18:14;0.20;;;0.20;;
29854;SDS011;16733;48.738;9.106;2023-12-20T05:20:40;0.20;;;0.20;;
29854;SDS011;16733;48.738;9.106;2023-12-20T05:23:06;0.20;;;0.20;;
29854;SDS011;16733;48.738;9.106;2023-12-20T05:25:32;0.10;;;0.10;;
29854;SDS011;16733;48.738;9.106;2023-12-20T05:27:58;0.17;;;0.17;;
29854;SDS011;16733;48.738;9.106;2023-12-20T05:30:24;0.20;;;0.20;;
29854;SDS011;16733;48.738;9.106;2023-12-20T05:32:50;0.20;;;0.20;;
29854;SDS011;16733;48.738;9.106;2023-12-20T05:35:16;0.20;;;0.20;;
29854;SDS011;16733;48.738;9.106;2023-12-20T05:37:42;0.20;;;0.20;;
29854;SDS011;16733;48.738;9.106;2023-12-20T05:40:08;0.20;;;0.20;;
29854;SDS011;16733;48.738;9.106;2023-12-20T05:42:35;0.20;;;0.20;;
29854;SDS011;16733;48.738;9.106;2023-12-20T05:45:02;0.20;;;0.20;;
29854;SDS011;16733;48.738;9.106;2023-12-20T05:47:28;0.13;;;0.13;;
29854;SDS011;16733;48.738;9.106;2023-12-20T05:49:54;0.20;;;0.20;;
29854;SDS011;16733;48.738;9.106;2023-12-20T05:52:20;0.10;;;0.10;;
29854;SDS011;16733;48.738;9.106;2023-12-20T05:54:45;0.20;;;0.20;;
29854;SDS011;16733;48.738;9.106;2023-12-20T05:57:12;0.20;;;0.20;;
29854;SDS011;16733;48.738;9.106;2023-12-20T05:59:38;0.20;;;0.20;;
29854;SDS011;16733;48.738;9.106;2023-12-20T06:02:04;0.10;;;0.10;;
29854;SDS011;16733;48.738;9.106;2023-12-20T06:04:30;0.20;;;0.20;;
29854;SDS011;16733;48.738;9.106;2023-12-20T06:06:56;0.17;;;0.17;;
29854;SDS011;16733;48.738;9.106;2023-12-20T06:09:22;0.20;;;0.20;;
29854;SDS011;16733;48.738;9.106;2023-12-20T06:11:49;0.20;;;0.20;;
29854;SDS011;16733;48.738;9.106;2023-12-20T06:14:16;0.20;;;0.20;;
29854;SDS011;16733;48.738;9.106;2023-12-20T06:16:42;0.20;;;0.20;;
29854;SDS011;16733;48.738;9.106;2023-12-20T06:19:08;0.20;;;0.20;;
29854;SDS011;16733;48.738;9.106;2023-12-20T06:21:34;0.20;;;0.20;;
29854;SDS011;16733;48.738;9.106;2023-12-20T06:24:00;0.20;;;0.20;;
29854;SDS011;16733;48.738;9.106;2023-12-20T06:26:26;0.20;;;0.20;;
29854;SDS011;16733;48.738;9.106;2023-12-20T06:28:52;0.20;;;0.20;;
29854;SDS011;16733;48.738;9.106;2023-12-20T06:31:18;0.20;;;0.20;;
29854;SDS011;16733;48.738;9.106;2023-12-20T06:33:44;0.20;;;0.20;;
29854;SDS011;16733;48.738;9.106;2023-12-20T06:36:11;0.20;;;0.20;;
29854;SDS011;16733;48.738;9.106;2023-12-20T06:38:38;0.20;;;0.20;;
29854;SDS011;16733;48.738;9.106;2023-12-20T06:41:04;0.20;;;0.20;;
29854;SDS011;16733;48.738;9.106;2023-12-20T06:43:30;0.20;;;0.20;;
29854;SDS011;16733;48.738;9.106;2023-12-20T06:45:57;0.20;;;0.20;;
29854;SDS011;16733;48.738;9.106;2023-12-20T06:48:23;0.20;;;0.20;;
29854;SDS011;16733;48.738;9.106;2023-12-20T06:50:49;0.10;;;0.10;;
29854;SDS011;16733;48.738;9.106;2023-12-20T06:53:15;0.20;;;0.20;;
29854;SDS011;16733;48.738;9.106;2023-12-20T06:55:41;0.13;;;0.13;;
29854;SDS011;16733;48.738;9.106;2023-12-20T06:58:07;0.20;;;0.20;;
29854;SDS011;16733;48.738;9.106;2023-12-20T07:00:34;0.20;;;0.20;;
29854;SDS011;16733;48.738;9.106;2023-12-20T07:03:00;0.20;;;0.20;;
29854;SDS011;16733;48.738;9.106;2023-12-20T07:05:26;0.20;;;0.20;;
29854;SDS011;16733;48.738;9.106;2023-12-20T07:07:52;0.20;;;0.20;;
29854;SDS011;16733;48.738;9.106;2023-12-20T07:10:18;0.20;;;0.20;;
29854;SDS011;16733;48.738;9.106;2023-12-20T07:12:44;0.10;;;0.10;;
29854;SDS011;16733;48.738;9.106;2023-12-20T07:15:10;0.20;;;0.20;;
29854;SDS011;16733;48.738;9.106;2023-12-20T07:17:36;0.20;;;0.20;;
29854;SDS011;16733;48.738;9.106;2023-12-20T07:20:02;0.10;;;0.10;;
29854;SDS011;16733;48.738;9.106;2023-12-20T07:22:31;0.20;;;0.20;;
29854;SDS011;16733;48.738;9.106;2023-12-20T07:24:58;0.20;;;0.20;;
29854;SDS011;16733;48.738;9.106;2023-12-20T07:27:24;0.20;;;0.20;;
29854;SDS011;16733;48.738;9.106;2023-12-20T07:29:50;0.20;;;0.20;;
29854;SDS011;16733;48.738;9.106;2023-12-20T07:32:16;0.20;;;0.20;;
29854;SDS011;16733;48.738;9.106;2023-12-20T07:34:42;0.20;;;0.20;;
29854;SDS011;16733;48.738;9.106;2023-12-20T07:37:08;0.10;;;0.10;;
29854;SDS011;16733;48.738;9.106;2023-12-20T07:39:36;0.20;;;0.20;;
29854;SDS011;16733;48.738;9.106;2023-12-20T07:42:02;0.20;;;0.20;;
29854;SDS011;16733;48.738;9.106;2023-12-20T07:44:28;0.20;;;0.20;;
29854;SDS011;16733;48.738;9.106;2023-12-20T07:46:54;0.20;;;0.20;;
29854;SDS011;16733;48.738;9.106;2023-12-20T07:49:20;0.10;;;0.10;;
29854;SDS011;16733;48.738;9.106;2023-12-20T07:51:46;0.20;;;0.20;;
29854;SDS011;16733;48.738;9.106;2023-12-20T07:54:12;0.13;;;0.13;;
29854;SDS011;16733;48.738;9.106;2023-12-20T07:56:38;0.20;;;0.20;;
29854;SDS011;16733;48.738;9.106;2023-12-20T07:59:05;0.20;;;0.20;;
29854;SDS011;16733;48.738;9.106;2023-12-20T08:01:31;0.20;;;0.20;;
29854;SDS011;16733;48.738;9.106;2023-12-20T08:03:57;0.20;;;0.20;;
29854;SDS011;16733;48.738;9.106;2023-12-20T08:06:23;0.20;;;0.20;;
29854;SDS011;16733;48.738;9.106;2023-12-20T08:08:49;0.20;;;0.20;;
29854;SDS011;16733;48.738;9.106;2023-12-20T08:11:15;0.10;;;0.10;;
29854;SDS011;16733;48.738;9.106;2023-12-20T08:13:41;0.10;;;0.10;;
29854;SDS011;16733;48.738;9.106;2023-12-20T08:16:07;0.10;;;0.10;;
29854;SDS011;16733;48.738;9.106;2023-12-20T08:18:33;0.10;;;0.10;;
29854;SDS011;16733;48.738;9.106;2023-12-20T08:20:59;0.17;;;0.17;;
29854;SDS011;16733;48.738;9.106;2023-12-20T08:23:26;0.20;;;0.20;;
29854;SDS011;16733;48.738;9.106;2023-12-20T08:25:52;0.20;;;0.20;;
29854;SDS011;16733;48.738;9.106;2023-12-20T08:28:18;0.20;;;0.20;;
29854;SDS011;16733;48.738;9.106;2023-12-20T08:30:44;0.50;;;0.50;;
29854;SDS011;16733;48.738;9.106;2023-12-20T08:33:10;0.20;;;0.20;;
29854;SDS011;16733;48.738;9.106;2023-12-20T08:35:38;0.20;;;0.20;;
29854;SDS011;16733;48.738;9.106;2023-12-20T08:38:04;0.20;;;0.20;;
29854;SDS011;16733;48.738;9.106;2023-12-20T08:40:30;0.15;;;0.15;;
29854;SDS011;16733;48.738;9.106;2023-12-20T08:42:56;0.20;;;0.20;;
29854;SDS011;16733;48.738;9.106;2023-12-20T08:45:23;0.13;;;0.13;;
29854;SDS011;16733;48.738;9.106;2023-12-20T08:47:49;0.20;;;0.20;;
29854;SDS011;16733;48.738;9.106;2023-12-20T08:50:15;0.20;;;0.20;;
29854;SDS011;16733;48.738;9.106;2023-12-20T08:52:41;0.10;;;0.10;;
29854;SDS011;16733;48.738;9.106;2023-12-20T08:55:07;0.20;;;0.20;;
29854;SDS011;16733;48.738;9.106;2023-12-20T08:57:35;0.20;;;0.20;;
29854;SDS011;16733;48.738;9.106;2023-12-20T09:00:01;0.20;;;0.20;;
29854;SDS011;16733;48.738;9.106;2023-12-20T09:02:28;0.10;;;0.10;;
29854;SDS011;16733;48.738;9.106;2023-12-20T09:04:54;0.20;;;0.20;;
29854;SDS011;16733;48.738;9.106;2023-12-20T09:07:24;0.15;;;0.15;;
29854;SDS011;16733;48.738;9.106;2023-12-20T09:09:50;0.20;;;0.20;;
29854;SDS011;16733;48.738;9.106;2023-12-20T09:12:19;0.20;;;0.20;;
29854;SDS011;16733;48.738;9.106;2023-12-20T09:14:49;0.20;;;0.20;;
29854;SDS011;16733;48.738;9.106;2023-12-20T09:17:15;0.20;;;0.20;;
29854;SDS011;16733;48.738;9.106;2023-12-20T09:19:42;0.20;;;0.20;;
29854;SDS011;16733;48.738;9.106;2023-12-20T09:22:08;0.20;;;0.20;;
29854;SDS011;16733;48.738;9.106;2023-12-20T09:24:35;0.20;;;0.20;;
29854;SDS011;16733;48.738;9.106;2023-12-20T09:27:01;0.20;;;0.20;;
29854;SDS011;16733;48.738;9.106;2023-12-20T09:29:27;0.20;;;0.20;;
29854;SDS011;16733;48.738;9.106;2023-12-20T09:31:53;0.20;;;0.20;;
29854;SDS011;16733;48.738;9.106;2023-12-20T09:34:19;0.20;;;0.20;;
29854;SDS011;16733;48.738;9.106;2023-12-20T09:36:46;0.20;;;0.20;;
29854;SDS011;16733;48.738;9.106;2023-12-20T09:39:16;0.13;;;0.13;;
29854;SDS011;16733;48.738;9.106;2023-12-20T09:42:02;0.20;;;0.20;;
29854;SDS011;16733;48.738;9.106;2023-12-20T09:44:28;0.20;;;0.20;;
29854;SDS011;16733;48.738;9.106;2023-12-20T09:46:55;0.20;;;0.20;;
29854;SDS011;16733;48.738;9.106;2023-12-20T09:49:21;0.20;;;0.20;;
29854;SDS011;16733;48.738;9.106;2023-12-20T09:51:47;0.20;;;0.20;;
29854;SDS011;16733;48.738;9.106;2023-12-20T09:54:19;0.15;;;0.15;;
29854;SDS011;16733;48.738;9.106;2023-12-20T09:56:46;0.20;;;0.20;;
29854;SDS011;16733;48.738;9.106;2023-12-20T09:59:12;0.20;;;0.20;;
29854;SDS011;16733;48.738;9.106;2023-12-20T10:01:39;0.20;;;0.20;;
29854;SDS011;16733;48.738;9.106;2023-12-20T10:04:06;0.20;;;0.20;;
29854;SDS011;16733;48.738;9.106;2023-12-20T10:06:34;0.20;;;0.20;;
29854;SDS011;16733;48.738;9.106;2023-12-20T10:09:00;0.20;;;0.20;;
29854;SDS011;16733;48.738;9.106;2023-12-20T10:11:26;0.20;;;0.20;;
29854;SDS011;16733;48.738;9.106;2023-12-20T10:13:58;0.10;;;0.10;;
29854;SDS011;16733;48.738;9.106;2023-12-20T10:16:25;0.20;;;0.20;;
29854;SDS011;16733;48.738;9.106;2023-12-20T10:18:52;0.20;;;0.20;;
29854;SDS011;16733;48.738;9.106;2023-12-20T10:21:18;0.10;;;0.10;;
29854;SDS011;16733;48.738;9.106;2023-12-20T10:23:45;0.20;;;0.20;;
29854;SDS011;16733;48.738;9.106;2023-12-20T10:26:18;0.20;;;0.20;;
29854;SDS011;16733;48.738;9.106;2023-12-20T10:28:45;0.20;;;0.20;;
29854;SDS011;16733;48.738;9.106;2023-12-20T10:31:20;0.13;;;0.13;;
29854;SDS011;16733;48.738;9.106;2023-12-20T10:33:51;0.15;;;0.15;;
29854;SDS011;16733;48.738;9.106;2023-12-20T10:36:17;0.20;;;0.20;;
29854;SDS011;16733;48.738;9.106;2023-12-20T10:38:43;0.20;;;0.20;;
29854;SDS011;16733;48.738;9.106;2023-12-20T10:41:10;0.20;;;0.20;;
29854;SDS011;16733;48.738;9.106;2023-12-20T10:43:37;0.20;;;0.20;;
29854;SDS011;16733;48.738;9.106;2023-12-20T10:46:03;0.20;;;0.20;;
29854;SDS011;16733;48.738;9.106;2023-12-20T10:48:30;0.15;;;0.15;;
29854;SDS011;16733;48.738;9.106;2023-12-20T10:50:57;0.20;;;0.20;;
29854;SDS011;16733;48.738;9.106;2023-12-20T10:53:24;1.13;;;0.55;;
29854;SDS011;16733;48.738;9.106;2023-12-20T10:55:51;1.27;;;0.85;;
29854;SDS011;16733;48.738;9.106;2023-12-20T10:58:18;2.78;;;0.70;;
29854;SDS011;16733;48.738;9.106;2023-12-20T11:00:45;1.85;;;0.70;;
29854;SDS011;16733;48.738;9.106;2023-12-20T11:03:13;5.93;;;1.58;;
29854;SDS011;16733;48.738;9.106;2023-12-20T11:08:11;3.97;;;0.77;;
29854;SDS011;16733;48.738;9.106;2023-12-20T11:10:49;0.93;;;0.75;;
29854;SDS011;16733;48.738;9.106;2023-12-20T11:13:20;12.70;;;1.17;;
29854;SDS011;16733;48.738;9.106;2023-12-20T11:15:47;0.85;;;0.65;;
29854;SDS011;16733;48.738;9.106;2023-12-20T11:18:13;9.85;;;0.98;;
29854;SDS011;16733;48.738;9.106;2023-12-20T11:20:40;3.45;;;0.98;;
29854;SDS011;16733;48.738;9.106;2023-12-20T11:23:07;7.68;;;1.42;;
29854;SDS011;16733;48.738;9.106;2023-12-20T11:25:45;7.32;;;1.05;;
29854;SDS011;16733;48.738;9.106;2023-12-20T11:28:11;2.97;;;1.15;;
29854;SDS011;16733;48.738;9.106;2023-12-20T11:30:49;0.65;;;0.63;;
29854;SDS011;16733;48.738;9.106;2023-12-20T11:33:16;5.05;;;0.95;;
29854;SDS011;16733;48.738;9.106;2023-12-20T11:35:42;2.25;;;0.82;;
29854;SDS011;16733;48.738;9.106;2023-12-20T11:38:09;1.42;;;0.90;;
29854;SDS011;16733;48.738;9.106;2023-12-20T11:40:35;0.65;;;0.65;;
29854;SDS011;16733;48.738;9.106;2023-12-20T11:43:02;4.28;;;0.93;;
29854;SDS011;16733;48.738;9.106;2023-12-20T11:45:28;7.72;;;0.98;;
29854;SDS011;16733;48.738;9.106;2023-12-20T11:47:55;5.90;;;1.23;;
29854;SDS011;16733;48.738;9.106;2023-12-20T11:50:22;4.03;;;1.08;;
29854;SDS011;16733;48.738;9.106;2023-12-20T11:52:49;3.42;;;0.80;;
29854;SDS011;16733;48.738;9.106;2023-12-20T11:55:16;6.18;;;0.98;;
29854;SDS011;16733;48.738;9.106;2023-12-20T11:57:42;9.13;;;1.05;;
29854;SDS011;16733;48.738;9.106;2023-12-20T12:00:09;4.88;;;0.77;;
29854;SDS011;16733;48.738;9.106;2023-12-20T12:02:35;3.72;;;0.85;;
29854;SDS011;16733;48.738;9.106;2023-12-20T12:05:01;8.18;;;0.55;;
29854;SDS011;16733;48.738;9.106;2023-12-20T12:07:30;1.20;;;0.75;;
29854;SDS011;16733;48.738;9.106;2023-12-20T12:09:56;7.57;;;1.17;;
29854;SDS011;16733;48.738;9.106;2023-12-20T12:12:22;7.10;;;1.50;;
29854;SDS011;16733;48.738;9.106;2023-12-20T12:14:50;2.95;;;1.08;;
29854;SDS011;16733;48.738;9.106;2023-12-20T12:17:16;3.20;;;0.88;;
29854;SDS011;16733;48.738;9.106;2023-12-20T12:19:43;5.63;;;1.02;;
29854;SDS011;16733;48.738;9.106;2023-12-20T12:24:45;4.07;;;1.13;;
29854;SDS011;16733;48.738;9.106;2023-12-20T12:27:11;1.33;;;0.85;;
29854;SDS011;16733;48.738;9.106;2023-12-20T12:29:38;7.15;;;1.02;;
29854;SDS011;16733;48.738;9.106;2023-12-20T12:32:04;4.88;;;0.88;;
29854;SDS011;16733;48.738;9.106;2023-12-20T12:34:31;4.10;;;0.98;;
29854;SDS011;16733;48.738;9.106;2023-12-20T12:36:59;0.93;;;0.52;;
29854;SDS011;16733;48.738;9.106;2023-12-20T12:39:25;4.60;;;1.58;;
29854;SDS011;16733;48.738;9.106;2023-12-20T12:41:51;2.15;;;1.08;;
29854;SDS011;16733;48.738;9.106;2023-12-20T12:44:17;2.83;;;0.95;;
29854;SDS011;16733;48.738;9.106;2023-12-20T12:46:46;7.30;;;1.45;;
29854;SDS011;16733;48.738;9.106;2023-12-20T12:49:15;2.97;;;1.00;;
29854;SDS011;16733;48.738;9.106;2023-12-20T12:51:41;6.35;;;1.00;;
29854;SDS011;16733;48.738;9.106;2023-12-20T12:54:07;6.18;;;1.00;;
29854;SDS011;16733;48.738;9.106;2023-12-20T12:56:34;3.15;;;0.57;;
29854;SDS011;16733;48.738;9.106;2023-12-20T12:59:00;3.85;;;0.70;;
29854;SDS011;16733;48.738;9.106;2023-12-20T13:01:27;1.15;;;0.73;;
29854;SDS011;16733;48.738;9.106;2023-12-20T13:03:53;4.47;;;1.20;;
29854;SDS011;16733;48.738;9.106;2023-12-20T13:06:19;9.50;;;0.88;;
29854;SDS011;16733;48.738;9.106;2023-12-20T13:08:45;3.63;;;0.90;;
29854;SDS011;16733;48.738;9.106;2023-12-20T13:11:11;1.20;;;0.80;;
29854;SDS011;16733;48.738;9.106;2023-12-20T13:13:37;2.70;;;1.45;;
29854;SDS011;16733;48.738;9.106;2023-12-20T13:16:04;1.08;;;0.60;;
29854;SDS011;16733;48.738;9.106;2023-12-20T13:18:30;5.70;;;1.40;;
29854;SDS011;16733;48.738;9.106;2023-12-20T13:20:56;2.85;;;0.80;;
29854;SDS011;16733;48.738;9.106;2023-12-20T13:23:22;1.50;;;0.95;;
29854;SDS011;16733;48.738;9.106;2023-12-20T13:25:48;7.70;;;1.33;;
29854;SDS011;16733;48.738;9.106;2023-12-20T13:28:14;2.88;;;0.80;;
29854;SDS011;16733;48.738;9.106;2023-12-20T13:30:40;1.10;;;0.95;;
29854;SDS011;16733;48.738;9.106;2023-12-20T13:33:06;1.15;;;0.70;;
29854;SDS011;16733;48.738;9.106;2023-12-20T13:35:32;1.63;;;0.70;;
29854;SDS011;16733;48.738;9.106;2023-12-20T13:37:58;4.97;;;0.80;;
29854;SDS011;16733;48.738;9.106;2023-12-20T13:40:24;1.83;;;0.70;;
29854;SDS011;16733;48.738;9.106;2023-12-20T13:42:50;4.15;;;0.80;;
29854;SDS011;16733;48.738;9.106;2023-12-20T13:45:16;0.68;;;0.65;;
29854;SDS011;16733;48.738;9.106;2023-12-20T13:47:42;1.45;;;0.70;;
29854;SDS011;16733;48.738;9.106;2023-12-20T13:50:08;1.52;;;0.73;;
29854;SDS011;16733;48.738;9.106;2023-12-20T13:52:34;3.38;;;0.98;;
29854;SDS011;16733;48.738;9.106;2023-12-20T13:55:01;5.05;;;0.85;;
29854;SDS011;16733;48.738;9.106;2023-12-20T13:57:27;0.60;;;0.60;;
29854;SDS011;16733;48.738;9.106;2023-12-20T13:59:54;2.60;;;1.13;;
29854;SDS011;16733;48.738;9.106;2023-12-20T14:02:22;1.35;;;0.63;;
29854;SDS011;16733;48.738;9.106;2023-12-20T14:04:48;1.15;;;0.60;;
29854;SDS011;16733;48.738;9.106;2023-12-20T14:07:14;2.90;;;0.60;;
29854;SDS011;16733;48.738;9.106;2023-12-20T14:09:41;3.10;;;1.05;;
29854;SDS011;16733;48.738;9.106;2023-12-20T14:12:13;0.70;;;0.63;;
29854;SDS011;16733;48.738;9.106;2023-12-20T14:14:39;4.50;;;0.50;;
29854;SDS011;16733;48.738;9.106;2023-12-20T14:17:05;6.28;;;0.77;;
29854;SDS011;16733;48.738;9.106;2023-12-20T14:19:31;0.50;;;0.50;;
29854;SDS011;16733;48.738;9.106;2023-12-20T14:21:57;3.80;;;0.95;;
29854;SDS011;16733;48.738;9.106;2023-12-20T14:24:26;10.90;;;1.17;;
29854;SDS011;16733;48.738;9.106;2023-12-20T14:26:52;1.10;;;0.60;;
29854;SDS011;16733;48.738;9.106;2023-12-20T14:29:18;2.67;;;1.02;;
29854;SDS011;16733;48.738;9.106;2023-12-20T14:31:45;3.70;;;0.82;;
29854;SDS011;16733;48.738;9.106;2023-12-20T14:34:11;1.05;;;0.60;;
29854;SDS011;16733;48.738;9.106;2023-12-20T14:36:37;12.73;;;1.05;;
29854;SDS011;16733;48.738;9.106;2023-12-20T14:39:03;5.40;;;0.88;;
29854;SDS011;16733;48.738;9.106;2023-12-20T14:41:30;2.63;;;1.13;;
29854;SDS011;16733;48.738;9.106;2023-12-20T14:43:56;5.40;;;0.90;;
29854;SDS011;16733;48.738;9.106;2023-12-20T14:46:22;3.92;;;0.77;;
29854;SDS011;16733;48.738;9.106;2023-12-20T14:48:48;1.17;;;0.57;;